Calafate, Argentina
Current Conditions -  °F | °C
As of 10:00 PM on Tuesday 21 Oct 2014 (Local Time) from SAWG Reporting Station
Light Rain Light Rain  
Wind Chill: 50°   Ceiling: Unl
Heat Index: 50°   Visibility: 6mi
Dew Point: 36°   Wind: 0mph
Humidity: 58%   Direction: NA
Pressure: NA   Gusts: NA
Location:  50.33°S, 72.27°W
Report Text: SAWG 220100Z 00000KT 9999 -RA SCT050 SCT200 10/02 Q9994
Loading
Personal Weather Stations






























Interactive Weather Map New forecast layout! Learn more

10-Day Weather Forecast

Advertisements
Track Severe Weather on mobile